Time;durP1;ratioP1;P1;durP2;ratioP2;P2;SDS_P1;SDS_P2;PMS_P1;PMS_P2;Temp;Humidity;BMP_temperature;BMP_pressure;BME280_temperature;BME280_humidity;BME280_pressure;Samples;Min_cycle;Max_cycle;Signal;HPM_P1;HPM_P2
2022/06/05 00:01:20;;;;;;;9.93;7.17;;;17.10;99.90;;;;;;4166830;28;20710;-84
2022/06/05 00:03:34;;;;;;;10.70;7.53;;;17.10;99.90;;;;;;4152471;28;20239;-84
2022/06/05 00:05:45;;;;;;;10.40;7.23;;;17.10;99.90;;;;;;4151479;28;20203;-84
2022/06/05 00:07:52;;;;;;;9.30;7.13;;;17.00;99.90;;;;;;4148872;28;20204;-84
2022/06/05 00:10:02;;;;;;;10.17;7.20;;;17.00;99.90;;;;;;4155275;28;20556;-83
2022/06/05 00:12:09;;;;;;;9.20;6.80;;;17.00;99.90;;;;;;4152885;28;20658;-84
2022/06/05 00:14:13;;;;;;;9.27;7.00;;;17.00;99.90;;;;;;4169711;28;20236;-84
2022/06/05 00:16:17;;;;;;;8.80;6.73;;;16.90;99.90;;;;;;4156852;28;20199;-84
2022/06/05 00:18:19;;;;;;;10.40;6.50;;;16.90;99.90;;;;;;4172069;28;20259;-84
2022/06/05 00:20:22;;;;;;;8.87;6.90;;;16.90;99.90;;;;;;4167102;28;20275;-85
2022/06/05 00:22:24;;;;;;;11.10;7.63;;;16.90;99.90;;;;;;4170150;28;20247;-85
2022/06/05 00:24:26;;;;;;;9.07;7.03;;;16.90;99.90;;;;;;4157762;28;20219;-85
2022/06/05 00:26:40;;;;;;;9.17;6.77;;;16.90;99.90;;;;;;4164665;28;20240;-85
2022/06/05 00:28:50;;;;;;;8.80;7.17;;;16.90;99.90;;;;;;4160078;28;20715;-85
2022/06/05 00:31:03;;;;;;;8.70;6.60;;;16.80;99.90;;;;;;4160859;28;20267;-84
2022/06/05 00:33:10;;;;;;;9.63;6.60;;;16.70;99.90;;;;;;4153118;28;20561;-84
2022/06/05 00:35:16;;;;;;;8.47;6.80;;;16.80;99.90;;;;;;4147739;28;20208;-84
2022/06/05 00:37:27;;;;;;;9.13;6.70;;;16.80;99.90;;;;;;4153564;28;20235;-85
2022/06/05 00:39:37;;;;;;;9.53;6.93;;;16.70;99.90;;;;;;4146151;28;20231;-84
2022/06/05 00:41:53;;;;;;;9.23;6.80;;;16.70;99.90;;;;;;4147007;28;20240;-84
2022/06/05 00:43:59;;;;;;;8.67;7.07;;;16.70;99.90;;;;;;4151871;28;20242;-84
2022/06/05 00:46:03;;;;;;;7.70;6.70;;;16.70;99.90;;;;;;4156296;28;20236;-82
2022/06/05 00:48:06;;;;;;;8.93;6.60;;;16.70;99.90;;;;;;4158713;28;20475;-83
2022/06/05 00:50:14;;;;;;;9.63;6.43;;;16.60;99.90;;;;;;4157192;28;20273;-84
2022/06/05 00:52:16;;;;;;;8.20;6.27;;;16.60;99.90;;;;;;4152744;28;20231;-84
2022/06/05 00:54:18;;;;;;;8.37;6.47;;;16.60;99.90;;;;;;4151024;28;20276;-84
2022/06/05 00:56:20;;;;;;;7.70;6.50;;;16.60;99.90;;;;;;4154833;28;20220;-84
2022/06/05 00:58:23;;;;;;;7.73;6.40;;;16.40;99.90;;;;;;4155153;28;20258;-84
2022/06/05 01:00:28;;;;;;;10.07;6.93;;;16.50;99.90;;;;;;4143656;28;20208;-84
2022/06/05 01:02:32;;;;;;;9.13;5.87;;;16.50;99.90;;;;;;4154773;28;20226;-84
2022/06/05 01:04:35;;;;;;;8.80;6.20;;;16.50;99.90;;;;;;4151344;28;20236;-85
2022/06/05 01:06:37;;;;;;;8.63;6.67;;;16.50;99.90;;;;;;4162541;28;20206;-85
2022/06/05 01:08:40;;;;;;;8.00;6.60;;;16.40;99.90;;;;;;4160358;28;20224;-84
2022/06/05 01:10:50;;;;;;;7.37;6.13;;;16.40;99.90;;;;;;4158091;28;20195;-84
2022/06/05 01:13:00;;;;;;;8.17;6.40;;;16.40;99.90;;;;;;4162170;28;20226;-84
2022/06/05 01:15:13;;;;;;;8.87;6.53;;;16.30;99.90;;;;;;4160881;28;20186;-85
2022/06/05 01:17:23;;;;;;;11.30;6.90;;;16.30;99.90;;;;;;4162398;28;20198;-84
2022/06/05 01:19:40;;;;;;;7.93;6.53;;;16.30;99.90;;;;;;4157123;28;20200;-85
2022/06/05 01:22:09;;;;;;;10.53;6.87;;;16.30;99.90;;;;;;4157859;28;20317;-84
2022/06/05 01:24:29;;;;;;;9.20;6.60;;;16.20;99.90;;;;;;4139420;28;20725;-84
2022/06/05 01:26:35;;;;;;;8.13;6.40;;;16.20;99.90;;;;;;4151977;28;20755;-83
2022/06/05 01:28:42;;;;;;;8.50;6.37;;;16.20;99.90;;;;;;4145403;28;20230;-84
2022/06/05 01:30:50;;;;;;;9.60;6.80;;;16.10;99.90;;;;;;4148346;28;20212;-84
2022/06/05 01:32:55;;;;;;;8.90;6.40;;;16.10;99.90;;;;;;4141287;28;20343;-84
2022/06/05 01:35:05;;;;;;;9.00;6.57;;;16.10;99.90;;;;;;4140613;28;20275;-84
2022/06/05 01:37:13;;;;;;;8.70;6.47;;;16.20;99.90;;;;;;4146271;28;20207;-83
2022/06/05 01:39:19;;;;;;;8.90;6.63;;;16.00;99.90;;;;;;4146996;28;20611;-83
2022/06/05 01:41:28;;;;;;;7.60;6.00;;;16.00;99.90;;;;;;4144560;28;20208;-84
2022/06/05 01:43:37;;;;;;;7.67;6.37;;;16.00;99.90;;;;;;4218913;23;20233;-82
2022/06/05 01:45:44;;;;;;;10.07;6.50;;;15.90;99.90;;;;;;4206018;28;20212;-82
2022/06/05 01:47:49;;;;;;;9.07;6.53;;;15.90;99.90;;;;;;4201858;28;20240;-82
2022/06/05 01:49:55;;;;;;;9.77;6.03;;;15.90;99.90;;;;;;4199621;28;20217;-82
2022/06/05 01:52:01;;;;;;;10.80;6.83;;;15.80;99.90;;;;;;4200251;28;20281;-82
2022/06/05 01:54:10;;;;;;;7.03;5.77;;;15.80;99.90;;;;;;4212863;28;20211;-82
2022/06/05 01:56:17;;;;;;;8.70;6.17;;;15.80;99.90;;;;;;4213263;28;20207;-82
2022/06/05 01:58:24;;;;;;;8.53;6.30;;;15.80;99.90;;;;;;4202822;28;20242;-82
2022/06/05 02:00:27;;;;;;;8.53;6.63;;;15.80;99.90;;;;;;4185460;28;20261;-82
2022/06/05 02:02:34;;;;;;;11.10;6.97;;;15.70;99.90;;;;;;4204298;28;20323;-82
2022/06/05 02:04:40;;;;;;;9.13;6.03;;;15.70;99.90;;;;;;4201263;28;20216;-82
2022/06/05 02:06:46;;;;;;;9.93;6.63;;;15.70;99.90;;;;;;4206215;28;20204;-82
2022/06/05 02:08:52;;;;;;;9.13;6.37;;;15.60;99.90;;;;;;4207006;28;20212;-82
2022/06/05 02:11:00;;;;;;;10.40;6.77;;;15.60;99.90;;;;;;4189297;28;20222;-82
2022/06/05 02:13:02;;;;;;;9.90;6.70;;;15.60;99.90;;;;;;4190132;28;20236;-82
2022/06/05 02:15:05;;;;;;;8.37;6.53;;;15.60;99.90;;;;;;4224610;28;20219;-81
2022/06/05 02:17:09;;;;;;;9.20;6.73;;;15.50;99.90;;;;;;4212868;28;20215;-82
2022/06/05 02:19:15;;;;;;;9.57;6.37;;;15.50;99.90;;;;;;4195831;28;20238;-82
2022/06/05 02:21:17;;;;;;;9.50;6.30;;;15.50;99.90;;;;;;4206555;28;20250;-82
2022/06/05 02:23:27;;;;;;;8.57;6.90;;;15.50;99.90;;;;;;4201221;28;20334;-81
2022/06/05 02:25:29;;;;;;;7.93;6.73;;;15.50;99.90;;;;;;4189712;28;20220;-82
2022/06/05 02:27:32;;;;;;;10.73;7.07;;;15.40;99.90;;;;;;4205178;28;20208;-82
2022/06/05 02:29:34;;;;;;;7.93;6.60;;;15.40;99.90;;;;;;4203875;28;20304;-82
2022/06/05 02:31:47;;;;;;;9.53;6.80;;;15.30;99.90;;;;;;4206619;28;20302;-82
2022/06/05 02:33:57;;;;;;;9.13;6.70;;;15.30;99.90;;;;;;4204188;28;20211;-82
2022/06/05 02:36:05;;;;;;;10.17;6.40;;;15.30;99.90;;;;;;4203458;28;20205;-82
2022/06/05 02:38:22;;;;;;;9.97;6.10;;;15.30;99.90;;;;;;4208198;28;20216;-82
2022/06/05 02:40:41;;;;;;;8.23;6.43;;;15.30;99.90;;;;;;4206498;28;20203;-81
2022/06/05 02:42:47;;;;;;;8.60;6.27;;;15.20;99.90;;;;;;4199367;28;20231;-82
2022/06/05 02:44:56;;;;;;;9.53;6.47;;;15.20;99.90;;;;;;4232149;28;20212;-82
2022/06/05 02:47:12;;;;;;;9.97;6.70;;;15.20;99.90;;;;;;4197218;28;20390;-82
2022/06/05 02:49:23;;;;;;;8.70;6.70;;;15.20;99.90;;;;;;4214103;28;20747;-81
2022/06/05 02:51:31;;;;;;;8.50;6.63;;;15.20;99.90;;;;;;4203661;28;20214;-82
2022/06/05 02:53:46;;;;;;;8.47;6.00;;;15.20;99.90;;;;;;4203220;28;20223;-82
2022/06/05 02:55:48;;;;;;;11.07;6.67;;;15.20;99.90;;;;;;4208741;28;20261;-82
2022/06/05 02:57:50;;;;;;;8.57;6.13;;;15.10;99.90;;;;;;4201432;28;20272;-81
2022/06/05 02:59:52;;;;;;;7.47;6.20;;;15.10;99.90;;;;;;4200812;28;20231;-82
2022/06/05 03:04:14;;;;;;;9.33;6.17;;;15.00;99.90;;;;;;4202037;28;20203;-81
2022/06/05 03:06:17;;;;;;;8.47;5.70;;;15.00;99.90;;;;;;4201735;28;20215;-82
2022/06/05 03:08:20;;;;;;;10.30;6.40;;;15.00;99.90;;;;;;4199465;28;20203;-81
2022/06/05 03:10:22;;;;;;;9.53;6.10;;;15.00;99.90;;;;;;4207528;28;20222;-82
2022/06/05 03:12:27;;;;;;;8.40;6.27;;;15.00;99.90;;;;;;4194711;28;20262;-82
2022/06/05 03:14:29;;;;;;;8.93;6.10;;;15.00;99.90;;;;;;4200310;28;20656;-82
2022/06/05 03:16:33;;;;;;;11.33;6.50;;;15.00;99.90;;;;;;4198041;28;20212;-82
2022/06/05 03:18:35;;;;;;;11.43;6.03;;;14.90;99.90;;;;;;4206181;28;20234;-82
2022/06/05 03:20:37;;;;;;;7.23;5.73;;;14.90;99.90;;;;;;4209339;28;20250;-81
2022/06/05 03:22:41;;;;;;;8.97;5.87;;;14.90;99.90;;;;;;4203948;28;20227;-82
2022/06/05 03:24:43;;;;;;;8.60;5.97;;;14.90;99.90;;;;;;4207570;28;20214;-82
2022/06/05 03:26:45;;;;;;;8.40;5.80;;;14.90;99.90;;;;;;4208526;28;20294;-82
2022/06/05 03:28:47;;;;;;;9.00;6.17;;;14.90;99.90;;;;;;4206646;28;20204;-82
2022/06/05 03:30:49;;;;;;;7.77;5.97;;;14.90;99.90;;;;;;4202232;28;20211;-81
2022/06/05 03:32:51;;;;;;;9.37;6.00;;;14.70;99.90;;;;;;4206477;28;20217;-82
2022/06/05 03:34:54;;;;;;;9.20;6.33;;;14.90;99.90;;;;;;4203224;28;20200;-82
2022/06/05 03:36:56;;;;;;;9.47;6.40;;;14.80;99.90;;;;;;4205466;28;20238;-82
2022/06/05 03:38:59;;;;;;;7.80;6.00;;;14.80;99.90;;;;;;4198385;28;20297;-82
2022/06/05 03:41:01;;;;;;;8.73;5.70;;;14.80;99.90;;;;;;4198664;28;20211;-82
2022/06/05 03:43:04;;;;;;;7.57;5.33;;;14.80;99.90;;;;;;4204835;28;20234;-84
2022/06/05 03:45:11;;;;;;;8.23;5.60;;;14.80;99.90;;;;;;4209388;28;20214;-84
2022/06/05 03:47:13;;;;;;;10.57;6.03;;;14.80;99.90;;;;;;4211918;28;20203;-82
2022/06/05 03:49:15;;;;;;;10.70;6.00;;;14.80;99.90;;;;;;4207510;28;20204;-82
2022/06/05 03:51:19;;;;;;;9.73;5.60;;;14.70;99.90;;;;;;4202949;28;20252;-82
2022/06/05 03:53:21;;;;;;;8.10;5.87;;;14.80;99.90;;;;;;4204004;28;20226;-82
2022/06/05 03:55:25;;;;;;;10.73;6.23;;;14.80;99.90;;;;;;4209481;28;20233;-81
2022/06/05 03:57:27;;;;;;;9.27;6.20;;;14.80;99.90;;;;;;4210451;28;20631;-81
2022/06/05 03:59:29;;;;;;;10.07;6.13;;;14.80;99.90;;;;;;4208870;28;20242;-84
2022/06/05 04:01:32;;;;;;;9.30;6.13;;;14.80;99.90;;;;;;4208658;28;20226;-84
2022/06/05 04:03:34;;;;;;;8.07;5.97;;;14.80;99.90;;;;;;4207008;28;20229;-84
2022/06/05 04:05:36;;;;;;;6.87;5.33;;;14.70;99.90;;;;;;4200100;28;20207;-82
2022/06/05 04:07:38;;;;;;;8.77;5.57;;;14.80;99.90;;;;;;4206343;28;20237;-82
2022/06/05 04:09:42;;;;;;;7.83;5.17;;;14.80;99.90;;;;;;4206228;28;20268;-82
2022/06/05 04:11:45;;;;;;;9.50;6.00;;;14.80;99.90;;;;;;4210932;28;20727;-82
2022/06/05 04:13:48;;;;;;;8.67;6.07;;;14.80;99.90;;;;;;4208764;28;20211;-82
2022/06/05 04:15:50;;;;;;;10.23;5.37;;;14.70;99.90;;;;;;4212728;28;20214;-82
2022/06/05 04:17:52;;;;;;;9.70;5.63;;;14.80;99.90;;;;;;4212525;28;20229;-81
2022/06/05 04:19:54;;;;;;;6.87;5.57;;;14.70;99.90;;;;;;4210777;28;20238;-84
2022/06/05 04:21:56;;;;;;;7.13;5.70;;;14.80;99.90;;;;;;4212486;28;20212;-82
2022/06/05 04:23:58;;;;;;;11.20;5.67;;;14.80;99.90;;;;;;4207663;28;20279;-81
2022/06/05 04:26:00;;;;;;;8.47;5.07;;;15.00;99.90;;;;;;4215865;28;20209;-82
2022/06/05 04:28:04;;;;;;;10.40;5.87;;;14.80;99.90;;;;;;4205077;28;20225;-81
2022/06/05 04:30:10;;;;;;;7.97;5.20;;;14.80;99.90;;;;;;4206244;28;20208;-81
2022/06/05 04:32:12;;;;;;;9.57;5.63;;;14.80;99.90;;;;;;4212342;28;20896;-82
2022/06/05 04:34:16;;;;;;;8.03;5.10;;;14.80;99.90;;;;;;4208369;28;20214;-82
2022/06/05 04:36:18;;;;;;;9.40;5.47;;;14.80;99.90;;;;;;4207949;28;20257;-82
2022/06/05 04:38:20;;;;;;;9.20;5.53;;;14.80;99.90;;;;;;4209576;28;20479;-82
2022/06/05 04:40:24;;;;;;;8.17;5.80;;;14.80;99.90;;;;;;4217920;28;20235;-82
2022/06/05 04:42:26;;;;;;;6.57;5.17;;;14.80;99.90;;;;;;4213958;28;20233;-82
2022/06/05 04:44:30;;;;;;;8.17;5.27;;;14.80;99.90;;;;;;4210981;28;20245;-82
2022/06/05 04:46:32;;;;;;;7.13;5.33;;;14.80;99.90;;;;;;4213059;28;20214;-84
2022/06/05 04:48:35;;;;;;;6.50;5.17;;;14.90;99.90;;;;;;4226935;28;20282;-82
2022/06/05 04:50:37;;;;;;;8.23;5.40;;;14.90;99.90;;;;;;4227496;28;20210;-81
2022/06/05 04:52:39;;;;;;;8.17;5.33;;;14.90;99.90;;;;;;4218095;28;20263;-82
2022/06/05 04:54:42;;;;;;;8.97;5.60;;;14.90;99.90;;;;;;4214150;28;20218;-82
2022/06/05 04:56:45;;;;;;;8.87;5.47;;;14.90;99.90;;;;;;4219770;28;20217;-82
2022/06/05 04:58:46;;;;;;;9.30;5.63;;;14.90;99.90;;;;;;4209442;28;20210;-82
2022/06/05 05:00:50;;;;;;;8.67;5.20;;;14.90;99.90;;;;;;4216656;28;20203;-83
2022/06/05 05:02:51;;;;;;;7.90;5.20;;;15.00;99.90;;;;;;4222366;28;20224;-83
2022/06/05 05:04:56;;;;;;;6.70;5.27;;;15.00;99.90;;;;;;4210086;28;20203;-82
2022/06/05 05:06:58;;;;;;;8.67;5.13;;;15.00;99.90;;;;;;4219142;28;20200;-82
2022/06/05 05:09:00;;;;;;;7.20;5.13;;;15.00;99.90;;;;;;4220597;28;20278;-83
2022/06/05 05:11:02;;;;;;;7.30;5.20;;;15.00;99.90;;;;;;4225975;28;20202;-82
2022/06/05 05:13:04;;;;;;;7.60;5.50;;;15.10;99.90;;;;;;4227013;28;20213;-83
2022/06/05 05:15:07;;;;;;;7.77;5.13;;;15.10;99.90;;;;;;4223492;28;20250;-83
2022/06/05 05:17:11;;;;;;;9.17;5.80;;;15.10;99.90;;;;;;4217526;28;20207;-83
2022/06/05 05:19:14;;;;;;;7.93;5.40;;;15.10;99.90;;;;;;4218816;28;20215;-83
2022/06/05 05:21:18;;;;;;;9.17;5.87;;;15.20;99.90;;;;;;4222048;28;20200;-83
2022/06/05 05:23:20;;;;;;;8.70;6.10;;;15.20;99.90;;;;;;4222486;28;20230;-83
2022/06/05 05:25:23;;;;;;;9.27;5.83;;;15.30;99.90;;;;;;4217616;28;20204;-83
2022/06/05 05:27:25;;;;;;;6.97;5.43;;;15.30;99.90;;;;;;4215837;28;20229;-82
2022/06/05 05:29:27;;;;;;;7.30;5.90;;;15.30;99.90;;;;;;4218523;28;20197;-83
2022/06/05 05:31:31;;;;;;;8.40;5.57;;;15.30;99.90;;;;;;4218948;28;20237;-83
2022/06/05 05:33:34;;;;;;;9.93;5.77;;;15.30;99.90;;;;;;4214551;28;20234;-83
2022/06/05 05:35:36;;;;;;;8.03;5.50;;;15.40;99.90;;;;;;4213677;28;20475;-83
2022/06/05 05:37:38;;;;;;;8.80;5.80;;;15.40;99.90;;;;;;4217474;28;20208;-83
2022/06/05 05:42:05;;;;;;;7.47;5.97;;;15.50;99.90;;;;;;4215211;28;20213;-83
2022/06/05 05:44:07;;;;;;;7.07;5.53;;;15.50;99.90;;;;;;4212080;28;20300;-83
2022/06/05 05:46:10;;;;;;;8.63;5.77;;;15.60;99.90;;;;;;4211454;28;20222;-83
2022/06/05 05:48:11;;;;;;;9.23;6.30;;;15.60;99.90;;;;;;4214801;28;20199;-83
2022/06/05 05:50:16;;;;;;;7.73;5.30;;;15.70;99.90;;;;;;4206569;28;20254;-83
2022/06/05 05:52:18;;;;;;;7.50;5.37;;;15.70;99.90;;;;;;4211880;28;20547;-83
2022/06/05 05:54:20;;;;;;;15.60;6.23;;;15.80;99.90;;;;;;4210645;28;20366;-83
2022/06/05 05:56:22;;;;;;;8.80;6.00;;;15.80;99.90;;;;;;4211562;28;20210;-83
2022/06/05 05:58:24;;;;;;;9.47;6.40;;;15.80;99.90;;;;;;4211797;28;20236;-82
2022/06/05 06:00:26;;;;;;;8.20;5.93;;;15.90;99.90;;;;;;4216128;28;20241;-83
2022/06/05 06:02:27;;;;;;;6.93;5.67;;;15.90;99.90;;;;;;4215509;28;20230;-83
2022/06/05 06:04:29;;;;;;;8.53;6.27;;;16.00;99.90;;;;;;4217418;28;20204;-83
2022/06/05 06:06:35;;;;;;;11.90;6.27;;;16.00;99.90;;;;;;4218085;28;20586;-83
2022/06/05 06:08:37;;;;;;;8.67;6.03;;;16.00;99.90;;;;;;4216405;28;20209;-83
2022/06/05 06:10:39;;;;;;;8.67;6.33;;;16.10;99.90;;;;;;4213886;28;20220;-83
2022/06/05 06:12:41;;;;;;;7.57;6.00;;;16.10;99.90;;;;;;4221882;28;20251;-83
2022/06/05 06:14:43;;;;;;;6.93;5.70;;;16.20;99.90;;;;;;4216061;28;20212;-83
2022/06/05 06:16:45;;;;;;;9.67;6.10;;;16.20;99.90;;;;;;4212682;28;20283;-83
2022/06/05 06:18:47;;;;;;;7.87;6.07;;;16.20;99.90;;;;;;4227771;28;20203;-83
2022/06/05 06:20:49;;;;;;;7.33;5.90;;;16.30;99.90;;;;;;4212816;28;20235;-83
2022/06/05 06:22:53;;;;;;;7.87;5.90;;;16.30;99.90;;;;;;4211139;28;20252;-83
2022/06/05 06:24:55;;;;;;;11.93;6.17;;;16.30;99.90;;;;;;4211902;28;20209;-83
2022/06/05 06:26:56;;;;;;;10.20;6.20;;;16.50;99.90;;;;;;4217524;28;20209;-83
2022/06/05 06:28:58;;;;;;;7.47;6.57;;;16.50;99.90;;;;;;4212661;28;20205;-83
2022/06/05 06:31:04;;;;;;;7.23;6.10;;;16.30;99.90;;;;;;4217258;28;20296;-83
2022/06/05 06:33:06;;;;;;;9.33;6.53;;;16.60;99.90;;;;;;4213811;28;20284;-83
2022/06/05 06:35:09;;;;;;;9.00;6.33;;;16.60;99.90;;;;;;4214540;28;20205;-83
2022/06/05 06:37:11;;;;;;;8.77;6.60;;;16.60;99.90;;;;;;4215632;28;20238;-83
2022/06/05 06:39:14;;;;;;;10.90;6.37;;;16.70;99.90;;;;;;4217184;28;20279;-82
2022/06/05 06:41:20;;;;;;;9.30;6.67;;;16.80;99.90;;;;;;4212026;28;20234;-83
2022/06/05 06:43:21;;;;;;;7.57;6.33;;;16.80;99.90;;;;;;4221237;28;20300;-83
2022/06/05 06:45:24;;;;;;;8.77;6.70;;;16.80;99.90;;;;;;4218420;28;20202;-83
2022/06/05 06:47:26;;;;;;;8.43;6.97;;;16.80;99.90;;;;;;4215766;28;20670;-83
2022/06/05 06:49:28;;;;;;;11.77;7.40;;;16.90;99.90;;;;;;4213947;28;20201;-82
2022/06/05 06:51:30;;;;;;;8.83;7.10;;;17.00;99.90;;;;;;4215050;28;20227;-83
2022/06/05 06:53:33;;;;;;;7.53;6.43;;;17.10;99.90;;;;;;4221568;28;20230;-83
2022/06/05 06:55:37;;;;;;;9.57;7.00;;;17.10;99.90;;;;;;4220816;28;20205;-83
2022/06/05 06:57:39;;;;;;;8.80;7.13;;;17.10;99.90;;;;;;4214820;28;20209;-84
2022/06/05 06:59:41;;;;;;;10.40;6.77;;;17.20;99.90;;;;;;4215367;28;20237;-83
2022/06/05 07:01:43;;;;;;;9.30;6.80;;;17.30;99.90;;;;;;4216890;28;20201;-83
2022/06/05 07:03:45;;;;;;;10.93;7.03;;;17.30;99.90;;;;;;4218895;28;20220;-83
2022/06/05 07:05:47;;;;;;;9.47;6.70;;;17.40;99.90;;;;;;4221575;28;20205;-83
2022/06/05 07:07:49;;;;;;;10.40;6.47;;;17.50;99.90;;;;;;4217681;28;20209;-83
2022/06/05 07:09:51;;;;;;;11.90;7.67;;;17.50;99.90;;;;;;4209502;28;20208;-83
2022/06/05 07:11:54;;;;;;;9.80;7.30;;;17.60;99.90;;;;;;4207547;28;20209;-83
2022/06/05 07:13:57;;;;;;;9.80;7.70;;;17.70;99.90;;;;;;4211617;28;20221;-83
2022/06/05 07:15:59;;;;;;;9.93;7.83;;;17.80;99.90;;;;;;4212296;28;20216;-83
2022/06/05 07:18:01;;;;;;;11.10;8.10;;;17.90;99.90;;;;;;4218624;28;20249;-83
2022/06/05 07:20:03;;;;;;;8.90;7.30;;;17.90;99.90;;;;;;4213690;28;20238;-83
2022/06/05 07:22:05;;;;;;;8.63;7.47;;;18.00;99.90;;;;;;4220000;28;20227;-83
2022/06/05 07:24:07;;;;;;;9.87;7.40;;;18.20;99.90;;;;;;4216535;28;20228;-83
2022/06/05 07:26:11;;;;;;;10.73;7.33;;;18.20;99.90;;;;;;4218173;28;20224;-83
2022/06/05 07:28:15;;;;;;;9.00;6.90;;;18.30;99.90;;;;;;4215171;28;20282;-83
2022/06/05 07:30:16;;;;;;;10.50;7.33;;;18.40;99.90;;;;;;4217470;28;20203;-83
2022/06/05 07:32:19;;;;;;;12.83;8.00;;;18.40;99.90;;;;;;4217190;28;20238;-83
2022/06/05 07:34:20;;;;;;;12.43;8.40;;;18.60;99.90;;;;;;4224702;28;20213;-84
2022/06/05 07:36:22;;;;;;;10.70;7.30;;;18.70;99.90;;;;;;4224046;28;20644;-84
2022/06/05 07:38:24;;;;;;;8.77;7.83;;;18.80;99.90;;;;;;4214016;28;20209;-83
2022/06/05 07:40:26;;;;;;;11.73;7.93;;;18.90;99.90;;;;;;4206630;28;20268;-83
2022/06/05 07:42:28;;;;;;;9.40;8.03;;;19.00;99.90;;;;;;4190917;28;20257;-84
2022/06/05 07:44:31;;;;;;;13.50;8.57;;;19.10;99.90;;;;;;4206103;28;20666;-84
2022/06/05 07:46:35;;;;;;;10.27;7.90;;;19.20;99.90;;;;;;4205724;28;20215;-83
2022/06/05 07:48:37;;;;;;;9.33;7.57;;;19.30;99.90;;;;;;4207050;28;20219;-84
2022/06/05 07:54:26;;;;;;;9.23;7.40;;;19.70;99.90;;;;;;4215504;28;20227;-84
2022/06/05 07:55:21;;;;;;;10.57;8.00;;;19.60;99.90;;;;;;4202349;28;20200;-84
2022/06/05 07:57:23;;;;;;;11.20;8.30;;;19.70;99.90;;;;;;4206350;28;20292;-84
2022/06/05 07:59:25;;;;;;;11.70;8.03;;;19.90;99.90;;;;;;4198696;28;20293;-84
2022/06/05 08:01:29;;;;;;;9.70;7.43;;;20.00;99.90;;;;;;4201563;28;20280;-84
2022/06/05 08:03:31;;;;;;;7.83;6.80;;;20.10;99.90;;;;;;4205613;28;20221;-85
2022/06/05 08:05:33;;;;;;;9.00;7.13;;;20.20;99.90;;;;;;4198900;28;20233;-84
2022/06/05 08:07:35;;;;;;;7.73;6.87;;;20.40;99.90;;;;;;4200554;28;20201;-84
2022/06/05 08:09:39;;;;;;;10.10;7.10;;;20.50;99.90;;;;;;4202626;28;20533;-83
2022/06/05 08:11:45;;;;;;;8.73;6.37;;;20.60;99.90;;;;;;4199577;28;20237;-85
2022/06/05 08:13:47;;;;;;;10.10;7.73;;;20.70;99.90;;;;;;4203887;28;20280;-83
2022/06/05 08:15:49;;;;;;;10.03;7.77;;;20.80;99.90;;;;;;4198749;28;20242;-83
2022/06/05 08:17:53;;;;;;;9.23;7.13;;;20.90;99.90;;;;;;4201062;28;20229;-82
2022/06/05 08:19:55;;;;;;;7.83;6.70;;;21.00;99.90;;;;;;4203710;28;20213;-83
2022/06/05 08:21:57;;;;;;;8.97;7.03;;;21.10;99.90;;;;;;4200506;28;20352;-82
2022/06/05 08:23:59;;;;;;;10.77;6.97;;;21.20;99.90;;;;;;4203161;28;20718;-82
2022/06/05 08:26:01;;;;;;;9.00;6.43;;;21.30;99.90;;;;;;4199819;28;20295;-83
2022/06/05 08:28:03;;;;;;;8.73;6.77;;;21.40;99.90;;;;;;4202458;28;20202;-82
2022/06/05 08:30:07;;;;;;;9.00;6.90;;;21.50;99.90;;;;;;4203853;28;20594;-82
2022/06/05 08:32:10;;;;;;;7.63;6.50;;;21.50;99.90;;;;;;4201892;28;20766;-82
2022/06/05 08:34:13;;;;;;;7.13;6.43;;;21.70;99.90;;;;;;4203450;28;20235;-85
2022/06/05 08:36:15;;;;;;;8.83;6.17;;;21.80;99.90;;;;;;4200210;28;20256;-85
2022/06/05 08:43:26;;;;;;;8.90;6.10;;;22.10;99.90;;;;;;4187958;28;20729;-83
2022/06/05 08:45:32;;;;;;;10.87;6.23;;;22.30;99.90;;;;;;4200263;28;20274;-84
2022/06/05 08:47:39;;;;;;;7.40;5.90;;;22.40;99.90;;;;;;4216735;28;20233;-84
2022/06/05 08:49:47;;;;;;;6.77;5.80;;;22.50;99.90;;;;;;4217182;28;20223;-85
2022/06/05 08:51:56;;;;;;;8.20;5.77;;;22.70;99.90;;;;;;4203591;28;20223;-85
2022/06/05 08:54:03;;;;;;;6.13;5.43;;;22.80;99.80;;;;;;4196990;28;20273;-85
2022/06/05 08:56:06;;;;;;;8.77;5.63;;;22.90;99.10;;;;;;4201520;28;20203;-83
2022/06/05 08:58:15;;;;;;;7.30;6.20;;;23.00;98.60;;;;;;4204111;28;20854;-82
2022/06/05 09:00:21;;;;;;;8.17;6.00;;;23.20;97.90;;;;;;4206993;28;20299;-83
2022/06/05 09:02:26;;;;;;;6.33;5.23;;;23.30;94.70;;;;;;4206058;28;20315;-83
2022/06/05 09:04:49;;;;;;;7.23;5.70;;;23.40;93.20;;;;;;4197694;28;20229;-83
2022/06/05 09:06:54;;;;;;;8.27;6.13;;;23.50;91.40;;;;;;4204433;28;20446;-82
2022/06/05 09:08:58;;;;;;;8.17;5.50;;;23.60;90.30;;;;;;4203765;28;20220;-83
2022/06/05 09:11:06;;;;;;;6.70;5.30;;;23.70;89.50;;;;;;4205760;28;20224;-84
2022/06/05 09:13:13;;;;;;;7.50;5.57;;;23.80;90.00;;;;;;4209299;28;20240;-81
2022/06/05 09:15:19;;;;;;;7.70;5.60;;;23.90;91.00;;;;;;4207699;28;20205;-81
2022/06/05 09:17:22;;;;;;;5.70;5.10;;;24.00;90.80;;;;;;4210392;28;20650;-81
2022/06/05 09:19:29;;;;;;;8.53;5.67;;;24.10;90.10;;;;;;4227003;28;20220;-80
2022/06/05 09:21:38;;;;;;;7.23;5.60;;;24.10;89.50;;;;;;4219638;28;20233;-82
2022/06/05 09:23:52;;;;;;;6.83;5.53;;;24.20;89.60;;;;;;4206817;28;20577;-81
2022/06/05 09:26:02;;;;;;;6.90;5.47;;;24.30;87.00;;;;;;4200263;28;20314;-80
2022/06/05 09:28:35;;;;;;;7.33;5.30;;;24.40;82.70;;;;;;4207927;28;20716;-80
2022/06/05 09:30:43;;;;;;;7.60;5.20;;;24.40;78.40;;;;;;4187994;28;20669;-83
2022/06/05 09:32:59;;;;;;;8.27;5.47;;;24.50;78.90;;;;;;4199780;28;20666;-82
2022/06/05 09:35:13;;;;;;;8.30;5.60;;;24.50;79.00;;;;;;4208182;28;20206;-80
2022/06/05 09:37:24;;;;;;;5.90;5.30;;;24.50;81.50;;;;;;4206937;28;20303;-82
2022/06/05 09:39:31;;;;;;;6.63;5.43;;;24.60;80.30;;;;;;4210362;28;20256;-80
2022/06/05 09:41:42;;;;;;;6.23;5.23;;;24.60;83.30;;;;;;4206845;28;20313;-82
2022/06/05 09:43:56;;;;;;;6.27;5.67;;;24.70;79.80;;;;;;4201656;28;20225;-82
2022/06/05 09:46:14;;;;;;;6.57;5.63;;;24.70;79.70;;;;;;4214482;28;20237;-83
2022/06/05 09:48:25;;;;;;;8.97;5.57;;;24.80;80.20;;;;;;4202278;28;20209;-83
2022/06/05 09:50:29;;;;;;;6.93;5.67;;;24.80;83.00;;;;;;4197981;28;20297;-83
2022/06/05 09:52:33;;;;;;;7.70;5.40;;;25.00;80.60;;;;;;4213323;28;20861;-84
2022/06/05 09:54:46;;;;;;;5.20;4.67;;;25.10;74.10;;;;;;4195318;28;20205;-81
2022/06/05 09:59:28;;;;;;;7.07;5.00;;;25.30;72.40;;;;;;4224763;28;20200;-81
2022/06/05 10:01:32;;;;;;;7.97;5.77;;;25.50;71.90;;;;;;4192337;28;20218;-80
2022/06/05 10:03:40;;;;;;;7.63;5.30;;;25.60;72.00;;;;;;4208130;28;20743;-80
2022/06/05 10:05:45;;;;;;;6.43;5.43;;;25.70;70.70;;;;;;4204096;28;20797;-80
2022/06/05 10:07:54;;;;;;;6.00;5.20;;;25.80;69.90;;;;;;4205633;28;20255;-81
2022/06/05 10:09:57;;;;;;;6.20;5.33;;;25.90;69.10;;;;;;4206787;28;20291;-80
2022/06/05 10:12:02;;;;;;;6.73;5.73;;;26.00;71.30;;;;;;4203201;28;20208;-80
2022/06/05 10:14:15;;;;;;;6.10;5.50;;;26.10;69.00;;;;;;4209953;28;20265;-80
2022/06/05 10:16:27;;;;;;;15.03;5.97;;;26.20;67.90;;;;;;4208500;28;20228;-80
2022/06/05 10:18:34;;;;;;;6.27;5.27;;;26.20;67.40;;;;;;4200180;28;20205;-80
2022/06/05 10:20:56;;;;;;;7.20;5.33;;;26.30;66.00;;;;;;4200153;28;20236;-80
2022/06/05 10:23:10;;;;;;;5.77;5.17;;;26.40;67.30;;;;;;4206670;28;20312;-80
2022/06/05 10:25:29;;;;;;;7.33;5.57;;;26.40;67.50;;;;;;4196091;28;20628;-80
2022/06/05 10:27:33;;;;;;;8.13;6.73;;;26.50;68.60;;;;;;4200801;28;20240;-83
2022/06/05 10:29:40;;;;;;;6.43;5.70;;;26.50;65.90;;;;;;4211555;28;20702;-81
2022/06/05 10:31:48;;;;;;;6.23;5.23;;;26.60;65.60;;;;;;4204230;28;20304;-81
2022/06/05 10:33:55;;;;;;;9.07;5.63;;;26.70;65.40;;;;;;4204311;28;20208;-82
2022/06/05 10:36:04;;;;;;;5.93;5.33;;;26.70;63.30;;;;;;4204302;28;20674;-81
2022/06/05 10:38:22;;;;;;;6.10;5.30;;;26.70;61.40;;;;;;4201767;28;20584;-81
2022/06/05 10:40:31;;;;;;;5.47;4.87;;;26.70;59.90;;;;;;4202967;28;20590;-82
2022/06/05 10:42:44;;;;;;;7.17;5.40;;;26.80;61.30;;;;;;4203231;28;20242;-84
2022/06/05 10:44:58;;;;;;;5.80;5.30;;;26.80;62.20;;;;;;4210921;28;20213;-82
2022/06/05 10:47:11;;;;;;;6.43;5.50;;;26.90;63.90;;;;;;4211686;28;20597;-81
2022/06/05 10:49:19;;;;;;;7.07;5.30;;;27.00;60.30;;;;;;4207158;28;20204;-81
2022/06/05 10:51:28;;;;;;;5.77;4.90;;;27.10;60.10;;;;;;4210633;28;20654;-82
2022/06/05 10:53:39;;;;;;;8.63;5.50;;;27.20;60.00;;;;;;4202989;28;20225;-83
2022/06/05 10:55:58;;;;;;;8.00;5.77;;;27.40;59.50;;;;;;4217700;28;20205;-81
2022/06/05 10:58:09;;;;;;;6.77;6.00;;;27.50;58.20;;;;;;4208271;28;20213;-81
2022/06/05 11:00:19;;;;;;;5.83;5.00;;;27.70;56.10;;;;;;4209870;28;20228;-81
2022/06/05 11:02:37;;;;;;;6.93;5.67;;;27.90;53.80;;;;;;4207735;28;20253;-81
2022/06/05 11:04:48;;;;;;;9.33;5.40;;;28.10;53.50;;;;;;4212177;28;20205;-82
2022/06/05 11:06:59;;;;;;;5.73;5.00;;;28.20;53.20;;;;;;4215679;28;20259;-82